sensor_id;sensor_type;location;lat;lon;timestamp;P1;durP1;ratioP1;P2;durP2;ratioP2
12212;SDS011;6169;44.158;22.788;2024-03-23T00:53:20;11.90;;;7.13;;
12212;SDS011;6169;44.158;22.788;2024-03-23T00:58:22;15.13;;;8.13;;
12212;SDS011;6169;44.158;22.788;2024-03-23T01:03:24;14.33;;;6.77;;
12212;SDS011;6169;44.158;22.788;2024-03-23T01:08:28;13.97;;;6.87;;
12212;SDS011;6169;44.158;22.788;2024-03-23T01:13:30;15.00;;;8.10;;
12212;SDS011;6169;44.158;22.788;2024-03-23T01:18:32;11.77;;;6.60;;
12212;SDS011;6169;44.158;22.788;2024-03-23T01:23:36;12.67;;;6.37;;
12212;SDS011;6169;44.158;22.788;2024-03-23T01:28:38;16.27;;;8.50;;
12212;SDS011;6169;44.158;22.788;2024-03-23T01:33:40;12.83;;;6.60;;
12212;SDS011;6169;44.158;22.788;2024-03-23T01:38:43;11.40;;;7.47;;
12212;SDS011;6169;44.158;22.788;2024-03-23T01:43:45;11.07;;;6.97;;
12212;SDS011;6169;44.158;22.788;2024-03-23T01:48:47;13.43;;;7.93;;
12212;SDS011;6169;44.158;22.788;2024-03-23T01:53:51;15.10;;;8.37;;
12212;SDS011;6169;44.158;22.788;2024-03-23T01:58:55;12.37;;;7.07;;
12212;SDS011;6169;44.158;22.788;2024-03-23T02:03:58;12.17;;;7.83;;
12212;SDS011;6169;44.158;22.788;2024-03-23T02:09:01;18.30;;;9.10;;
12212;SDS011;6169;44.158;22.788;2024-03-23T02:14:05;13.37;;;7.63;;
12212;SDS011;6169;44.158;22.788;2024-03-23T02:19:08;16.27;;;8.50;;
12212;SDS011;6169;44.158;22.788;2024-03-23T02:24:11;12.83;;;7.43;;
12212;SDS011;6169;44.158;22.788;2024-03-23T02:29:13;12.03;;;7.80;;
12212;SDS011;6169;44.158;22.788;2024-03-23T02:34:16;15.00;;;8.10;;
12212;SDS011;6169;44.158;22.788;2024-03-23T02:39:19;13.70;;;8.23;;
12212;SDS011;6169;44.158;22.788;2024-03-23T02:44:21;12.13;;;7.90;;
12212;SDS011;6169;44.158;22.788;2024-03-23T02:49:23;13.13;;;8.80;;
12212;SDS011;6169;44.158;22.788;2024-03-23T02:54:27;20.73;;;9.87;;
12212;SDS011;6169;44.158;22.788;2024-03-23T02:59:29;12.10;;;8.37;;
12212;SDS011;6169;44.158;22.788;2024-03-23T03:04:31;13.43;;;8.17;;
12212;SDS011;6169;44.158;22.788;2024-03-23T03:09:35;17.67;;;8.60;;
12212;SDS011;6169;44.158;22.788;2024-03-23T03:14:39;11.30;;;7.77;;
12212;SDS011;6169;44.158;22.788;2024-03-23T03:19:41;12.13;;;8.27;;
12212;SDS011;6169;44.158;22.788;2024-03-23T03:24:44;15.53;;;8.77;;
12212;SDS011;6169;44.158;22.788;2024-03-23T03:29:46;14.07;;;8.83;;
12212;SDS011;6169;44.158;22.788;2024-03-23T03:34:48;17.07;;;9.37;;
12212;SDS011;6169;44.158;22.788;2024-03-23T03:39:52;15.73;;;8.53;;
12212;SDS011;6169;44.158;22.788;2024-03-23T03:44:54;16.80;;;9.27;;
12212;SDS011;6169;44.158;22.788;2024-03-23T03:49:56;16.97;;;9.03;;
12212;SDS011;6169;44.158;22.788;2024-03-23T03:55:02;14.03;;;9.50;;
12212;SDS011;6169;44.158;22.788;2024-03-23T04:00:06;13.43;;;9.17;;
12212;SDS011;6169;44.158;22.788;2024-03-23T04:05:11;17.97;;;9.27;;
12212;SDS011;6169;44.158;22.788;2024-03-23T04:10:14;12.07;;;7.97;;
12212;SDS011;6169;44.158;22.788;2024-03-23T04:15:16;16.03;;;8.63;;
12212;SDS011;6169;44.158;22.788;2024-03-23T04:20:19;13.37;;;9.40;;
12212;SDS011;6169;44.158;22.788;2024-03-23T04:25:22;14.20;;;8.67;;
12212;SDS011;6169;44.158;22.788;2024-03-23T04:30:24;16.97;;;9.43;;
12212;SDS011;6169;44.158;22.788;2024-03-23T04:35:28;16.90;;;9.90;;
12212;SDS011;6169;44.158;22.788;2024-03-23T04:40:31;15.03;;;9.07;;
12212;SDS011;6169;44.158;22.788;2024-03-23T04:45:34;20.43;;;9.47;;
12212;SDS011;6169;44.158;22.788;2024-03-23T04:50:36;21.00;;;12.50;;
12212;SDS011;6169;44.158;22.788;2024-03-23T04:55:39;20.77;;;12.03;;
12212;SDS011;6169;44.158;22.788;2024-03-23T05:00:41;25.17;;;15.53;;
12212;SDS011;6169;44.158;22.788;2024-03-23T05:05:43;24.00;;;15.63;;
12212;SDS011;6169;44.158;22.788;2024-03-23T05:10:47;20.80;;;12.17;;
12212;SDS011;6169;44.158;22.788;2024-03-23T05:15:51;18.00;;;10.87;;
12212;SDS011;6169;44.158;22.788;2024-03-23T05:20:55;18.37;;;10.70;;
12212;SDS011;6169;44.158;22.788;2024-03-23T05:25:59;16.60;;;10.97;;
12212;SDS011;6169;44.158;22.788;2024-03-23T05:31:01;17.23;;;10.57;;
12212;SDS011;6169;44.158;22.788;2024-03-23T05:36:04;15.93;;;9.77;;
12212;SDS011;6169;44.158;22.788;2024-03-23T05:41:10;17.20;;;10.33;;
12212;SDS011;6169;44.158;22.788;2024-03-23T05:46:12;19.23;;;10.70;;
12212;SDS011;6169;44.158;22.788;2024-03-23T05:51:14;19.83;;;11.90;;
12212;SDS011;6169;44.158;22.788;2024-03-23T05:56:19;19.50;;;12.03;;
12212;SDS011;6169;44.158;22.788;2024-03-23T06:01:21;17.57;;;10.37;;
12212;SDS011;6169;44.158;22.788;2024-03-23T06:06:23;20.80;;;11.07;;
12212;SDS011;6169;44.158;22.788;2024-03-23T06:11:27;24.73;;;11.63;;
12212;SDS011;6169;44.158;22.788;2024-03-23T06:16:29;19.53;;;12.30;;
12212;SDS011;6169;44.158;22.788;2024-03-23T06:21:31;18.27;;;12.17;;
12212;SDS011;6169;44.158;22.788;2024-03-23T06:26:35;23.70;;;13.80;;
12212;SDS011;6169;44.158;22.788;2024-03-23T06:31:37;27.27;;;14.27;;
12212;SDS011;6169;44.158;22.788;2024-03-23T06:36:39;27.07;;;15.27;;
12212;SDS011;6169;44.158;22.788;2024-03-23T06:41:50;23.95;;;13.25;;
12212;SDS011;6169;44.158;22.788;2024-03-23T06:46:53;23.92;;;13.32;;
12212;SDS011;6169;44.158;22.788;2024-03-23T06:51:55;24.38;;;13.27;;
12212;SDS011;6169;44.158;22.788;2024-03-23T06:56:59;25.55;;;15.50;;
12212;SDS011;6169;44.158;22.788;2024-03-23T07:02:01;22.40;;;13.60;;
12212;SDS011;6169;44.158;22.788;2024-03-23T07:07:03;21.05;;;13.45;;
12212;SDS011;6169;44.158;22.788;2024-03-23T07:12:07;20.45;;;12.77;;
12212;SDS011;6169;44.158;22.788;2024-03-23T07:17:09;23.77;;;13.95;;
12212;SDS011;6169;44.158;22.788;2024-03-23T07:22:11;26.42;;;14.27;;
12212;SDS011;6169;44.158;22.788;2024-03-23T07:27:14;23.52;;;14.15;;
12212;SDS011;6169;44.158;22.788;2024-03-23T07:32:17;24.88;;;14.52;;
12212;SDS011;6169;44.158;22.788;2024-03-23T07:37:19;26.02;;;16.58;;
12212;SDS011;6169;44.158;22.788;2024-03-23T07:42:22;28.13;;;15.98;;
12212;SDS011;6169;44.158;22.788;2024-03-23T07:47:26;29.70;;;15.55;;
12212;SDS011;6169;44.158;22.788;2024-03-23T07:52:28;29.60;;;18.25;;
12212;SDS011;6169;44.158;22.788;2024-03-23T07:57:32;26.27;;;17.90;;
12212;SDS011;6169;44.158;22.788;2024-03-23T08:02:34;26.23;;;15.30;;
12212;SDS011;6169;44.158;22.788;2024-03-23T08:07:36;25.92;;;15.63;;
12212;SDS011;6169;44.158;22.788;2024-03-23T08:12:40;21.50;;;13.38;;
12212;SDS011;6169;44.158;22.788;2024-03-23T08:17:42;19.80;;;12.15;;
12212;SDS011;6169;44.158;22.788;2024-03-23T08:22:44;21.45;;;12.82;;
12212;SDS011;6169;44.158;22.788;2024-03-23T08:27:47;22.55;;;11.88;;
12212;SDS011;6169;44.158;22.788;2024-03-23T08:32:49;22.52;;;12.55;;
12212;SDS011;6169;44.158;22.788;2024-03-23T08:37:51;18.85;;;11.68;;
12212;SDS011;6169;44.158;22.788;2024-03-23T08:42:55;16.05;;;9.85;;
12212;SDS011;6169;44.158;22.788;2024-03-23T08:47:57;14.25;;;10.27;;
12212;SDS011;6169;44.158;22.788;2024-03-23T08:52:59;19.02;;;10.82;;
12212;SDS011;6169;44.158;22.788;2024-03-23T08:58:03;14.52;;;9.57;;
12212;SDS011;6169;44.158;22.788;2024-03-23T09:03:08;13.52;;;9.23;;
12212;SDS011;6169;44.158;22.788;2024-03-23T09:08:10;15.98;;;8.90;;
12212;SDS011;6169;44.158;22.788;2024-03-23T09:13:14;17.50;;;9.10;;
12212;SDS011;6169;44.158;22.788;2024-03-23T09:18:16;16.40;;;10.00;;
12212;SDS011;6169;44.158;22.788;2024-03-23T09:23:19;15.95;;;10.00;;
12212;SDS011;6169;44.158;22.788;2024-03-23T09:28:22;15.93;;;8.88;;
12212;SDS011;6169;44.158;22.788;2024-03-23T09:33:24;15.75;;;8.88;;
12212;SDS011;6169;44.158;22.788;2024-03-23T09:38:26;12.57;;;8.45;;
12212;SDS011;6169;44.158;22.788;2024-03-23T09:43:30;11.95;;;7.63;;
12212;SDS011;6169;44.158;22.788;2024-03-23T09:48:32;13.10;;;7.78;;
12212;SDS011;6169;44.158;22.788;2024-03-23T09:53:34;12.23;;;7.57;;
12212;SDS011;6169;44.158;22.788;2024-03-23T09:58:38;15.18;;;9.07;;
12212;SDS011;6169;44.158;22.788;2024-03-23T10:03:43;9.95;;;7.43;;
12212;SDS011;6169;44.158;22.788;2024-03-23T10:08:45;15.90;;;7.57;;
12212;SDS011;6169;44.158;22.788;2024-03-23T10:13:49;19.85;;;8.55;;
12212;SDS011;6169;44.158;22.788;2024-03-23T10:18:51;10.00;;;7.32;;
12212;SDS011;6169;44.158;22.788;2024-03-23T10:23:53;15.07;;;7.35;;
12212;SDS011;6169;44.158;22.788;2024-03-23T10:28:57;12.65;;;8.50;;
12212;SDS011;6169;44.158;22.788;2024-03-23T10:34:02;15.00;;;8.98;;
12212;SDS011;6169;44.158;22.788;2024-03-23T10:39:04;18.20;;;9.25;;
12212;SDS011;6169;44.158;22.788;2024-03-23T10:44:10;13.82;;;7.38;;
12212;SDS011;6169;44.158;22.788;2024-03-23T10:49:13;14.82;;;8.43;;
12212;SDS011;6169;44.158;22.788;2024-03-23T10:54:15;13.35;;;7.50;;
12212;SDS011;6169;44.158;22.788;2024-03-23T10:59:19;11.15;;;7.13;;
12212;SDS011;6169;44.158;22.788;2024-03-23T11:04:32;10.32;;;7.32;;
12212;SDS011;6169;44.158;22.788;2024-03-23T11:09:38;13.43;;;7.40;;
12212;SDS011;6169;44.158;22.788;2024-03-23T11:14:41;10.48;;;5.82;;
12212;SDS011;6169;44.158;22.788;2024-03-23T11:19:43;9.40;;;5.78;;
12212;SDS011;6169;44.158;22.788;2024-03-23T11:24:49;10.30;;;5.55;;
12212;SDS011;6169;44.158;22.788;2024-03-23T11:29:53;6.93;;;4.70;;
12212;SDS011;6169;44.158;22.788;2024-03-23T11:34:55;8.70;;;4.47;;
12212;SDS011;6169;44.158;22.788;2024-03-23T11:39:57;8.02;;;4.88;;
12212;SDS011;6169;44.158;22.788;2024-03-23T11:45:08;6.75;;;3.90;;
12212;SDS011;6169;44.158;22.788;2024-03-23T11:50:18;5.28;;;3.50;;
12212;SDS011;6169;44.158;22.788;2024-03-23T11:55:21;8.40;;;4.72;;
12212;SDS011;6169;44.158;22.788;2024-03-23T12:00:26;5.38;;;3.70;;
12212;SDS011;6169;44.158;22.788;2024-03-23T12:05:30;6.93;;;3.75;;
12212;SDS011;6169;44.158;22.788;2024-03-23T12:10:33;4.40;;;3.72;;
12212;SDS011;6169;44.158;22.788;2024-03-23T12:15:37;6.32;;;3.50;;
12212;SDS011;6169;44.158;22.788;2024-03-23T12:20:40;19.52;;;5.38;;
12212;SDS011;6169;44.158;22.788;2024-03-23T12:25:42;4.40;;;3.97;;
12212;SDS011;6169;44.158;22.788;2024-03-23T12:30:45;7.20;;;4.50;;
12212;SDS011;6169;44.158;22.788;2024-03-23T12:35:48;7.95;;;4.72;;
12212;SDS011;6169;44.158;22.788;2024-03-23T12:40:50;8.10;;;4.97;;
12212;SDS011;6169;44.158;22.788;2024-03-23T12:45:54;7.45;;;4.03;;
12212;SDS011;6169;44.158;22.788;2024-03-23T12:50:56;5.35;;;3.75;;
12212;SDS011;6169;44.158;22.788;2024-03-23T12:55:58;6.45;;;3.38;;
12212;SDS011;6169;44.158;22.788;2024-03-23T13:01:01;5.88;;;3.65;;
12212;SDS011;6169;44.158;22.788;2024-03-23T13:06:04;6.03;;;3.78;;
12212;SDS011;6169;44.158;22.788;2024-03-23T13:11:08;9.82;;;4.10;;
12212;SDS011;6169;44.158;22.788;2024-03-23T13:16:12;19.75;;;7.07;;
12212;SDS011;6169;44.158;22.788;2024-03-23T13:21:14;6.10;;;3.08;;
12212;SDS011;6169;44.158;22.788;2024-03-23T13:26:16;7.47;;;3.65;;
12212;SDS011;6169;44.158;22.788;2024-03-23T13:31:20;5.30;;;3.83;;
12212;SDS011;6169;44.158;22.788;2024-03-23T13:36:22;6.28;;;2.78;;
12212;SDS011;6169;44.158;22.788;2024-03-23T13:41:24;4.88;;;3.65;;
12212;SDS011;6169;44.158;22.788;2024-03-23T13:46:29;7.47;;;3.67;;
12212;SDS011;6169;44.158;22.788;2024-03-23T13:51:31;5.13;;;3.47;;
12212;SDS011;6169;44.158;22.788;2024-03-23T13:56:33;5.03;;;2.50;;
12212;SDS011;6169;44.158;22.788;2024-03-23T14:01:36;4.13;;;3.00;;
12212;SDS011;6169;44.158;22.788;2024-03-23T14:06:38;4.10;;;2.90;;
12212;SDS011;6169;44.158;22.788;2024-03-23T14:11:42;5.35;;;2.80;;
12212;SDS011;6169;44.158;22.788;2024-03-23T14:16:45;7.25;;;3.72;;
12212;SDS011;6169;44.158;22.788;2024-03-23T14:21:47;5.25;;;3.58;;
12212;SDS011;6169;44.158;22.788;2024-03-23T14:26:50;3.00;;;2.47;;
12212;SDS011;6169;44.158;22.788;2024-03-23T14:31:53;6.20;;;2.83;;
12212;SDS011;6169;44.158;22.788;2024-03-23T14:36:55;7.88;;;4.18;;
12212;SDS011;6169;44.158;22.788;2024-03-23T14:41:57;3.20;;;2.38;;
12212;SDS011;6169;44.158;22.788;2024-03-23T14:47:01;3.42;;;2.50;;
12212;SDS011;6169;44.158;22.788;2024-03-23T14:52:03;7.30;;;3.50;;
12212;SDS011;6169;44.158;22.788;2024-03-23T14:57:06;5.13;;;3.35;;
12212;SDS011;6169;44.158;22.788;2024-03-23T15:02:10;3.88;;;2.70;;
12212;SDS011;6169;44.158;22.788;2024-03-23T15:07:13;6.28;;;3.28;;
12212;SDS011;6169;44.158;22.788;2024-03-23T15:12:15;5.38;;;3.35;;
12212;SDS011;6169;44.158;22.788;2024-03-23T15:17:18;5.68;;;2.97;;
12212;SDS011;6169;44.158;22.788;2024-03-23T15:22:20;5.20;;;2.67;;
12212;SDS011;6169;44.158;22.788;2024-03-23T15:27:23;3.42;;;2.63;;
12212;SDS011;6169;44.158;22.788;2024-03-23T15:32:27;3.88;;;2.53;;
12212;SDS011;6169;44.158;22.788;2024-03-23T15:37:31;9.65;;;3.80;;
12212;SDS011;6169;44.158;22.788;2024-03-23T15:42:34;7.15;;;3.05;;
12212;SDS011;6169;44.158;22.788;2024-03-23T15:47:38;4.40;;;2.88;;
12212;SDS011;6169;44.158;22.788;2024-03-23T15:52:40;6.93;;;3.10;;
12212;SDS011;6169;44.158;22.788;2024-03-23T15:57:42;6.43;;;3.25;;
12212;SDS011;6169;44.158;22.788;2024-03-23T16:02:45;3.55;;;2.63;;
12212;SDS011;6169;44.158;22.788;2024-03-23T16:07:48;7.55;;;2.40;;
12212;SDS011;6169;44.158;22.788;2024-03-23T16:12:50;9.60;;;3.65;;
12212;SDS011;6169;44.158;22.788;2024-03-23T16:17:54;8.82;;;2.90;;
12212;SDS011;6169;44.158;22.788;2024-03-23T16:22:56;11.27;;;3.70;;
12212;SDS011;6169;44.158;22.788;2024-03-23T16:27:58;5.65;;;3.25;;
12212;SDS011;6169;44.158;22.788;2024-03-23T16:33:01;9.55;;;4.38;;
12212;SDS011;6169;44.158;22.788;2024-03-23T16:38:03;8.05;;;4.05;;
12212;SDS011;6169;44.158;22.788;2024-03-23T16:43:06;4.25;;;3.28;;
12212;SDS011;6169;44.158;22.788;2024-03-23T16:48:09;5.93;;;3.92;;
12212;SDS011;6169;44.158;22.788;2024-03-23T16:53:11;10.63;;;5.72;;
12212;SDS011;6169;44.158;22.788;2024-03-23T16:58:13;6.95;;;3.55;;
12212;SDS011;6169;44.158;22.788;2024-03-23T17:03:17;9.77;;;5.03;;
12212;SDS011;6169;44.158;22.788;2024-03-23T17:08:20;13.00;;;5.75;;
12212;SDS011;6169;44.158;22.788;2024-03-23T17:13:22;9.60;;;5.07;;
12212;SDS011;6169;44.158;22.788;2024-03-23T17:18:26;6.95;;;4.35;;
12212;SDS011;6169;44.158;22.788;2024-03-23T17:23:30;8.20;;;5.22;;
12212;SDS011;6169;44.158;22.788;2024-03-23T17:28:32;9.00;;;5.05;;
12212;SDS011;6169;44.158;22.788;2024-03-23T17:33:36;8.90;;;4.97;;
12212;SDS011;6169;44.158;22.788;2024-03-23T17:38:38;8.43;;;6.05;;
12212;SDS011;6169;44.158;22.788;2024-03-23T17:43:40;13.18;;;6.55;;
12212;SDS011;6169;44.158;22.788;2024-03-23T17:48:43;8.98;;;5.88;;
12212;SDS011;6169;44.158;22.788;2024-03-23T17:53:45;10.02;;;4.50;;
12212;SDS011;6169;44.158;22.788;2024-03-23T17:58:48;6.32;;;4.13;;
12212;SDS011;6169;44.158;22.788;2024-03-23T18:03:52;22.23;;;9.43;;
12212;SDS011;6169;44.158;22.788;2024-03-23T18:08:55;10.98;;;5.68;;
12212;SDS011;6169;44.158;22.788;2024-03-23T18:13:57;9.98;;;6.75;;
12212;SDS011;6169;44.158;22.788;2024-03-23T18:19:01;10.65;;;6.28;;
12212;SDS011;6169;44.158;22.788;2024-03-23T18:24:03;6.20;;;4.70;;
12212;SDS011;6169;44.158;22.788;2024-03-23T18:29:06;30.40;;;18.35;;
12212;SDS011;6169;44.158;22.788;2024-03-23T18:34:09;9.02;;;5.75;;
12212;SDS011;6169;44.158;22.788;2024-03-23T18:39:12;31.02;;;19.63;;
12212;SDS011;6169;44.158;22.788;2024-03-23T18:44:14;15.40;;;8.25;;
12212;SDS011;6169;44.158;22.788;2024-03-23T18:49:18;13.00;;;8.00;;
12212;SDS011;6169;44.158;22.788;2024-03-23T18:54:21;22.85;;;10.07;;
12212;SDS011;6169;44.158;22.788;2024-03-23T18:59:23;23.33;;;13.90;;
12212;SDS011;6169;44.158;22.788;2024-03-23T19:04:26;17.88;;;11.98;;
12212;SDS011;6169;44.158;22.788;2024-03-23T19:09:28;37.40;;;23.35;;
12212;SDS011;6169;44.158;22.788;2024-03-23T19:14:32;12.07;;;7.53;;
12212;SDS011;6169;44.158;22.788;2024-03-23T19:19:35;25.20;;;11.23;;
12212;SDS011;6169;44.158;22.788;2024-03-23T19:24:37;20.95;;;11.98;;
12212;SDS011;6169;44.158;22.788;2024-03-23T19:29:39;14.30;;;7.72;;
12212;SDS011;6169;44.158;22.788;2024-03-23T19:34:43;13.57;;;7.22;;
12212;SDS011;6169;44.158;22.788;2024-03-23T19:39:45;11.35;;;6.15;;
12212;SDS011;6169;44.158;22.788;2024-03-23T19:44:47;11.85;;;6.45;;
12212;SDS011;6169;44.158;22.788;2024-03-23T19:49:50;11.30;;;6.85;;
12212;SDS011;6169;44.158;22.788;2024-03-23T19:54:52;15.50;;;6.35;;
12212;SDS011;6169;44.158;22.788;2024-03-23T19:59:54;15.10;;;8.85;;
12212;SDS011;6169;44.158;22.788;2024-03-23T20:04:58;18.55;;;10.63;;
12212;SDS011;6169;44.158;22.788;2024-03-23T20:10:00;17.25;;;7.82;;
12212;SDS011;6169;44.158;22.788;2024-03-23T20:15:03;12.48;;;6.15;;
12212;SDS011;6169;44.158;22.788;2024-03-23T20:20:09;10.50;;;7.30;;
12212;SDS011;6169;44.158;22.788;2024-03-23T20:25:12;12.13;;;8.95;;
12212;SDS011;6169;44.158;22.788;2024-03-23T20:30:14;12.77;;;6.70;;
12212;SDS011;6169;44.158;22.788;2024-03-23T20:35:18;12.98;;;7.03;;
12212;SDS011;6169;44.158;22.788;2024-03-23T20:40:20;14.25;;;8.60;;
12212;SDS011;6169;44.158;22.788;2024-03-23T20:45:22;12.65;;;8.00;;
12212;SDS011;6169;44.158;22.788;2024-03-23T20:50:25;11.52;;;7.55;;
12212;SDS011;6169;44.158;22.788;2024-03-23T20:55:27;10.15;;;6.85;;
12212;SDS011;6169;44.158;22.788;2024-03-23T21:00:31;9.70;;;7.10;;
12212;SDS011;6169;44.158;22.788;2024-03-23T21:05:35;14.10;;;7.13;;
12212;SDS011;6169;44.158;22.788;2024-03-23T21:10:37;17.05;;;8.45;;
12212;SDS011;6169;44.158;22.788;2024-03-23T21:15:44;10.85;;;6.72;;
12212;SDS011;6169;44.158;22.788;2024-03-23T21:20:52;11.90;;;6.22;;
12212;SDS011;6169;44.158;22.788;2024-03-23T21:25:57;8.15;;;5.60;;
12212;SDS011;6169;44.158;22.788;2024-03-23T21:31:03;9.13;;;5.22;;
12212;SDS011;6169;44.158;22.788;2024-03-23T21:36:06;15.52;;;8.95;;
12212;SDS011;6169;44.158;22.788;2024-03-23T21:41:09;14.32;;;8.77;;
12212;SDS011;6169;44.158;22.788;2024-03-23T21:46:11;17.60;;;9.75;;
12212;SDS011;6169;44.158;22.788;2024-03-23T21:51:15;17.75;;;10.70;;
12212;SDS011;6169;44.158;22.788;2024-03-23T21:56:18;14.55;;;10.00;;
12212;SDS011;6169;44.158;22.788;2024-03-23T22:01:20;17.27;;;9.95;;
12212;SDS011;6169;44.158;22.788;2024-03-23T22:06:23;20.67;;;9.85;;
12212;SDS011;6169;44.158;22.788;2024-03-23T22:11:25;15.23;;;9.45;;
12212;SDS011;6169;44.158;22.788;2024-03-23T22:16:28;21.02;;;12.00;;
12212;SDS011;6169;44.158;22.788;2024-03-23T22:21:31;26.33;;;10.63;;
12212;SDS011;6169;44.158;22.788;2024-03-23T22:26:33;24.35;;;11.20;;
12212;SDS011;6169;44.158;22.788;2024-03-23T22:31:35;22.30;;;11.52;;
12212;SDS011;6169;44.158;22.788;2024-03-23T22:36:39;24.40;;;12.55;;
12212;SDS011;6169;44.158;22.788;2024-03-23T22:41:41;22.35;;;12.13;;
12212;SDS011;6169;44.158;22.788;2024-03-23T22:46:43;22.55;;;12.77;;
12212;SDS011;6169;44.158;22.788;2024-03-23T22:51:47;16.92;;;11.65;;
12212;SDS011;6169;44.158;22.788;2024-03-23T22:56:49;23.27;;;13.60;;
12212;SDS011;6169;44.158;22.788;2024-03-23T23:01:51;22.45;;;13.82;;
12212;SDS011;6169;44.158;22.788;2024-03-23T23:06:55;25.60;;;14.00;;
12212;SDS011;6169;44.158;22.788;2024-03-23T23:11:57;31.98;;;19.42;;
12212;SDS011;6169;44.158;22.788;2024-03-23T23:16:59;24.23;;;15.45;;
12212;SDS011;6169;44.158;22.788;2024-03-23T23:22:02;28.45;;;16.45;;
12212;SDS011;6169;44.158;22.788;2024-03-23T23:27:05;35.65;;;18.27;;
12212;SDS011;6169;44.158;22.788;2024-03-23T23:32:07;23.90;;;13.82;;
12212;SDS011;6169;44.158;22.788;2024-03-23T23:37:11;21.33;;;11.57;;
12212;SDS011;6169;44.158;22.788;2024-03-23T23:42:13;18.52;;;10.32;;
12212;SDS011;6169;44.158;22.788;2024-03-23T23:47:15;12.60;;;6.97;;
12212;SDS011;6169;44.158;22.788;2024-03-23T23:52:19;10.98;;;5.72;;
12212;SDS011;6169;44.158;22.788;2024-03-23T23:57:21;13.00;;;5.07;;
